Regional La Paz
EstaciónAerodromoSit. GeograficaDescripción
SLLPInternaciónal El Alto16-08S-68-10W SLLP 111600Z 27006KT 190V320 9000 SCT017 FEW020CB SCT070 BKN200 12/M05 Q1035 A3057 626.2 HR29 P97// CB/SH N/NE/E/S FU NOSIG=
SLRYReyes14-18S-67-21W SLRY 091500Z 00000KT 9999 NSC 30/22 Q1014 A2995 HR63 FU RWY NML=
SLRQRurrenabaque14-25S-67-29W SLRQ 111600Z 00000KT 8000 FU SCT017 BKN080 29/25 Q1010 A2985 986.7 HR80=
SLAPApolo14-44S-68-24W SLAP 071100Z 00000KT 9999 SCT025 BKN070 15/15 Q1024 A3026 864.5 HR98=
SLSBSan Borja14-51S-66-44W SLSB 111600Z 30003KT 8000 SCT017 BKN080 30/24 Q1011 A2986 HR71 FU RWY NML=
SLCNCharaña17-35S-69-25W SLCN 112000Z
SLOROruro17-57S-67-04W SLOR 111600Z 36006KT 9000 SCT020 SCT070 11/M10 Q1033 A3051 654.6 HR22 CI/CC HZ=
SLUYUyuni20-27S-62-52W SLUY 101800Z 30008KT 9999 NSC 13/M11 Q1032 A3049 657.3 HR19=
SLCCCopacabana - Tito Yupanqui16-11S-69-05W SLCC 211200Z NIL=
Regional Cochabamba
EstaciónAerodromoSit. GeograficaDescripción
SLVMVillamontes21-15S-63-24W SLVM 111600Z 18015G27KT 7000 SCT070 21/08 Q1018 A3008 HR44 FU CI
SLHIChimore16-58S-65-09W SLHI 211800Z NIL=
SLCBCochabamba17-25S-66-10W SLCB 111600Z 30006KT 9000 FEW036 SCT080 23/00 Q1023 A3021 749.8 HR22 FU NOSIG=
SLALAlcantari19-14S-65-09W SLAL 111100Z 00000KT 9999 NSC 08/46 Q1036 A3060 708.4 HR80=
SLPOPotosí19-32S-65-43W SLPO 101300Z 23005KT 9999 NSC 04/M07 Q1038 A3065 638.1 HR47=
SLAGMonteagudo19-49S-63-58W SLAG 111600Z 19005KT 9999 FEW017 SCT070 23/08 Q1018 A3008 890.7 HR39 FU CI=
SLTJTarija21-33S-64-42W SLTJ 111400Z 15008KT 9999 BKN025 OVC070 14/08 Q1022 A3019 816.8 FU HR68=
SLYAYacuiba21-57S-63-39W SLYA 111600Z 21008KT 9999 FEW023 BKN070 18/05 Q1018 A3008 943.0 HR44=
SLBJBermejo22-46S-64-18W SLBJ 211800Z NIL=
Regional Santa Cruz
EstaciónAerodromoSit. GeograficaDescripción
SLVGValle Grande18-28S-64-05W RTD SLVG 061400Z 36008KT 9999 BKN015 16/14 Q1025 A3027 HR90 RWY NML=
SLASAscención de Guarayos15-55S-63-09W SLAS 101500Z 34005KT 9999 NSC 29/19 Q1014 A2994 HR57 RWY NML=
SLCPConcepción16-08S-62-01W SLCP 091600Z 00000KT 9999 NSC 30/18 Q1020 A3012 HR48 FU RWY NML =
SLJVSan Javier16-16S-62-28W SLJV 061200Z 00000KT 9999 NSC 20/18 Q1014 A2994 HR88 RWY NML=
SLTISan Matías16-20S-58-24W SLTI 071800Z 36005KT 8000 NSC 36/12 Q1019 A3009 HR24 FU RWY NML=
SLSISan Ignacio de Velasco16-23S-60-57W SLSI 092000Z 33008KT 9999 NSC 34/23 Q1015 A2997 HR50 RWY NML=
SLVRInternaciónal Viru Viru17-38S-63-08W SLVR 111600Z 16006KT 8000 SCT023 FEW027CB BKN070 26/17 Q1015 A2998 HR57 FU CB/SH SW TEMPO SHRA=
SLETEl Trompillo17-48S-63-10W SLET 111600Z 17006KT 5000 -RA BKN020 FEW030CB BKN070 24/15 Q1014 A2997 HR59 CB SW FU TEMPO 8000=
SLJESan José de Chiquitos17-49S-60-44W SLJE 211700Z 00000KT 9999 BKN015 30/23 Q1013 A2991 HR69 RWY HUM OPR=
SLRBRoboré18-19S-59-45W SLRB 041800Z 36010KT 9999 NSC 34/23 Q1018 A3006 HR53 FU RWY NML =
SLPSPuerto Suárez18-58S-57-49W SLPS 111400Z 09008KT 3000 FU NSC 29/20 Q1014 A2995 HR57 AC=
SLCACamiri20-00S-63-31W SLCA 241000Z 00000KT 9999 NSC 16/15 Q1012 A2988 HR93 RWY NML=
Regional Beni
EstaciónAerodromoSit. GeograficaDescripción
SLTRTrinidad14-49S-64-54W SLTR 111600Z 33004KT 5000 FU FEW020 32/22 Q1011 A2987 992.9 HR57 AC NOSIG=
SLCOCobija11-02S-68-47W SLCO 111600Z 35010KT 7000 NSC 33/22 Q1011 A2987 984.2 HR53 FU=
SLGMGuayaramerín10-53S-65-23W SLGM 111600Z 36006KT 3000 FU NSC 33/21 Q1011 A2988 HR50
SLRIRiberalta11-00S-66-04W SLRI 111600Z 34008KT 8000 NSC 32/23 Q1012 A2990 HR58 FU=
SLJOSan Joaquin13-03S-64-39W SLJO 111600Z NIL=
SLRASan Ramón13-15S-64-36W SLRA 111600Z 36012KT 7000 FEW020 34/19 Q1011 A2987 HR41 FU RWY NML=
SLMGSan Magdalena13-15S-64-36W SLMG 111600Z NIL=
SLBUBaures13-39S-63-42W SLBU 111600Z NIL=
SLSASanta Ana de Yacuma13-45S-65-26W SLSA 111600Z 32012KT 5000 FU SCT020 34/20 Q1011 A2988 HR43=
SLSRSanta Rosa14-04S-66-47W SLSR 111600Z NIL=
SLSMSan Ignacio de Moxos14-57S-65-38W SLSM 111600Z 32010KT 8000 FEW020 33/21 Q1011 A2983 HR52 FU RWY NML=